Garfield, Kentucky
Current Conditions -  °F | °C
As of 5:58 AM on Friday 28 Nov 2014 (Local Time) from KFTK Reporting Station
Overcast Overcast  
Wind Chill: 24°   Ceiling: 14000
Heat Index: 24°   Visibility: 10mi
Dew Point: 20°   Wind: 3mph
Humidity: 86%   Direction: 150°SSE
Pressure: 30.4"   Gusts: NA
Location:  37.78°N, 86.36°W
Report Text: KFTK 281158Z AUTO 15003KT 10SM OVC140 M05/M07 A3040 RMK AO2 SLP308 T10461066 11046 21077 50002
Loading
Personal Weather Stations






























Interactive Weather Map New forecast layout! Learn more

10-Day Weather Forecast

Advertisements
Track Severe Weather on mobile